Time;durP1;ratioP1;P1;durP2;ratioP2;P2;SDS_P1;SDS_P2;PMS_P1;PMS_P2;Temp;Humidity;BMP_temperature;BMP_pressure;BME280_temperature;BME280_humidity;BME280_pressure;Samples;Min_cycle;Max_cycle;Signal;HPM_P1;HPM_P2
2021/08/05 00:02:16;;;;;;;12.60;5.30;;;640.30;1484.80;;;;;;5135756;27;20027;-76
2021/08/05 00:04:42;;;;;;;10.30;4.88;;;640.30;1459.20;;;;;;5135748;27;20023;-75
2021/08/05 00:07:08;;;;;;;7.43;4.63;;;640.30;1484.80;;;;;;5135570;27;20463;-76
2021/08/05 00:09:35;;;;;;;8.20;5.25;;;640.30;1484.80;;;;;;5135536;27;20027;-76
2021/08/05 00:12:00;;;;;;;8.75;4.97;;;640.30;1459.20;;;;;;5136138;27;20090;-77
2021/08/05 00:14:26;;;;;;;8.32;4.50;;;640.30;1459.20;;;;;;5135841;27;20046;-77
2021/08/05 00:16:52;;;;;;;6.95;4.63;;;640.30;1484.80;;;;;;5116918;27;20038;-78
2021/08/05 00:19:18;;;;;;;9.88;4.68;;;640.30;1484.80;;;;;;5135417;27;20076;-76
2021/08/05 00:21:44;;;;;;;8.35;4.63;;;640.30;1484.80;;;;;;5135337;27;20431;-77
2021/08/05 00:24:10;;;;;;;5.68;4.60;;;640.30;1484.80;;;;;;5135562;27;20046;-75
2021/08/05 00:26:36;;;;;;;14.95;4.90;;;640.30;1484.80;;;;;;5113290;28;20434;-75
2021/08/05 00:29:01;;;;;;;6.97;4.50;;;640.20;1484.80;;;;;;5114688;28;20023;-77
2021/08/05 00:31:27;;;;;;;8.93;5.22;;;640.20;1484.80;;;;;;5114632;28;20365;-76
2021/08/05 00:33:53;;;;;;;6.90;4.45;;;640.20;1459.20;;;;;;5114827;28;20048;-76
2021/08/05 00:36:19;;;;;;;6.05;4.57;;;640.20;1484.80;;;;;;5114303;28;20031;-76
2021/08/05 00:38:45;;;;;;;9.32;5.18;;;640.20;1484.80;;;;;;5114315;28;20030;-76
2021/08/05 00:41:12;;;;;;;7.15;4.55;;;640.20;1484.80;;;;;;5114531;28;20430;-75
2021/08/05 00:43:39;;;;;;;9.13;4.93;;;640.20;1484.80;;;;;;5114131;28;20460;-76
2021/08/05 00:46:05;;;;;;;8.35;5.15;;;640.20;1459.20;;;;;;5113859;28;20042;-77
2021/08/05 00:48:31;;;;;;;7.65;4.90;;;640.10;1484.80;;;;;;5114890;28;20019;-77
2021/08/05 00:50:58;;;;;;;11.18;4.95;;;640.10;1459.20;;;;;;5114286;28;20028;-76
2021/08/05 00:53:27;;;;;;;30.13;15.43;;;640.10;1484.80;;;;;;5114167;28;20532;-76
2021/08/05 00:55:53;;;;;;;14.23;7.35;;;640.10;1459.20;;;;;;5114127;28;20043;-74
2021/08/05 00:58:19;;;;;;;14.13;5.80;;;640.10;1484.80;;;;;;5114418;28;20125;-77
2021/08/05 01:00:50;;;;;;;13.15;6.07;;;640.20;1484.80;;;;;;5114195;28;20458;-75
2021/08/05 01:03:28;;;;;;;13.35;7.22;;;640.20;1459.20;;;;;;5114119;28;20472;-77
2021/08/05 01:06:16;;;;;;;9.57;5.55;;;640.10;1459.20;;;;;;5112857;28;20063;-76
2021/08/05 01:08:49;;;;;;;9.43;5.30;;;640.10;1459.20;;;;;;5114041;28;20031;-76
2021/08/05 01:11:27;;;;;;;7.50;4.85;;;640.10;1484.80;;;;;;5114259;28;20027;-76
2021/08/05 01:13:59;;;;;;;10.27;5.15;;;640.10;1484.80;;;;;;5114091;28;20024;-76
2021/08/05 01:16:30;;;;;;;10.55;5.13;;;640.10;1484.80;;;;;;5112612;28;20035;-76
2021/08/05 01:19:34;;;;;;;6.88;4.70;;;640.10;1459.20;;;;;;5113903;28;20023;-75
2021/08/05 01:22:10;;;;;;;7.03;4.85;;;615.30;1484.80;;;;;;5091550;28;20028;-75
2021/08/05 01:24:41;;;;;;;9.40;4.30;;;640.00;1484.80;;;;;;5113891;28;20031;-75
2021/08/05 01:27:07;;;;;;;7.25;5.13;;;615.30;1484.80;;;;;;5132303;28;20053;-76
2021/08/05 01:29:35;;;;;;;7.43;4.30;;;615.30;1484.80;;;;;;5134376;28;20023;-75
2021/08/05 01:32:06;;;;;;;10.27;4.53;;;615.30;1484.80;;;;;;5134380;28;20088;-75
2021/08/05 01:34:32;;;;;;;8.35;4.45;;;615.30;1484.80;;;;;;5134320;28;20023;-75
2021/08/05 01:37:00;;;;;;;8.52;4.65;;;615.30;1510.40;;;;;;5134301;28;20529;-75
2021/08/05 01:39:28;;;;;;;8.10;4.60;;;615.30;1484.80;;;;;;5134560;28;20027;-75
2021/08/05 01:41:55;;;;;;;7.70;4.72;;;615.20;1484.80;;;;;;5134151;28;20046;-76
2021/08/05 01:44:21;;;;;;;9.07;4.60;;;615.20;1484.80;;;;;;5134154;28;20047;-75
2021/08/05 01:46:48;;;;;;;10.75;4.90;;;615.10;1510.40;;;;;;5134400;28;20023;-76
2021/08/05 01:49:15;;;;;;;9.15;5.10;;;615.10;1510.40;;;;;;5134084;28;20030;-76
2021/08/05 01:51:41;;;;;;;8.20;4.88;;;615.10;1484.80;;;;;;5134073;28;20502;-76
2021/08/05 01:54:08;;;;;;;8.43;4.80;;;615.10;1510.40;;;;;;5134197;28;20106;-76
2021/08/05 01:56:34;;;;;;;6.53;5.20;;;615.10;1484.80;;;;;;5133973;27;20054;-75
2021/08/05 01:59:01;;;;;;;8.07;4.30;;;615.10;1484.80;;;;;;5137189;27;20370;-76
2021/08/05 02:01:27;;;;;;;7.28;4.38;;;615.10;1484.80;;;;;;5119267;27;20386;-76
2021/08/05 02:04:08;;;;;;;7.43;4.80;;;615.00;1484.80;;;;;;5138071;27;20023;-77
2021/08/05 02:06:39;;;;;;;7.68;4.93;;;615.00;1484.80;;;;;;5138190;27;20056;-77
2021/08/05 02:09:17;;;;;;;7.53;4.95;;;615.10;1510.40;;;;;;5138032;27;20023;-76
2021/08/05 02:11:47;;;;;;;10.65;5.03;;;615.10;1510.40;;;;;;5119553;27;20019;-77
2021/08/05 02:14:16;;;;;;;11.30;5.38;;;615.00;1510.40;;;;;;5138163;27;20020;-77
2021/08/05 02:16:45;;;;;;;8.80;5.20;;;615.00;1510.40;;;;;;5138067;27;20041;-75
2021/08/05 02:19:13;;;;;;;9.50;5.57;;;615.00;1510.40;;;;;;5137783;27;20015;-75
2021/08/05 02:21:42;;;;;;;8.43;4.90;;;615.00;1510.40;;;;;;5137723;27;20026;-76
2021/08/05 02:24:08;;;;;;;7.97;5.18;;;615.00;1510.40;;;;;;5137953;27;20378;-76
2021/08/05 02:26:34;;;;;;;7.28;5.03;;;615.00;1510.40;;;;;;5118974;27;20043;-76
2021/08/05 02:29:01;;;;;;;7.10;5.35;;;615.00;1510.40;;;;;;5119244;27;20110;-76
2021/08/05 02:31:27;;;;;;;8.55;5.47;;;615.00;1510.40;;;;;;5137515;27;20020;-75
2021/08/05 02:33:57;;;;;;;8.25;5.60;;;614.90;1510.40;;;;;;5137520;27;20099;-75
2021/08/05 02:36:23;;;;;;;8.05;5.28;;;614.90;1510.40;;;;;;5137400;27;20027;-76
2021/08/05 02:38:50;;;;;;;8.23;5.45;;;614.90;1510.40;;;;;;5137481;27;20078;-76
2021/08/05 02:41:17;;;;;;;9.07;5.53;;;614.90;1510.40;;;;;;5137447;27;20027;-76
2021/08/05 02:43:44;;;;;;;8.50;5.07;;;614.90;1510.40;;;;;;5137619;27;20027;-76
2021/08/05 02:46:12;;;;;;;10.95;5.75;;;614.90;1510.40;;;;;;5137318;27;20493;-76
2021/08/05 02:48:38;;;;;;;10.20;5.07;;;614.90;1484.80;;;;;;5137148;27;20494;-73
2021/08/05 02:51:05;;;;;;;10.93;5.88;;;614.90;1510.40;;;;;;5137175;27;20077;-74
2021/08/05 02:53:32;;;;;;;12.40;6.00;;;614.90;1484.80;;;;;;5137324;27;20023;-73
2021/08/05 02:55:58;;;;;;;12.55;5.53;;;614.90;1510.40;;;;;;5136974;27;20019;-75
2021/08/05 02:58:25;;;;;;;10.13;6.07;;;614.90;1510.40;;;;;;5137032;27;20401;-75
2021/08/05 03:00:51;;;;;;;9.95;5.65;;;614.90;1510.40;;;;;;5137179;27;20024;-74
2021/08/05 03:03:22;;;;;;;10.55;6.25;;;614.90;1510.40;;;;;;5136874;27;20029;-75
2021/08/05 03:05:50;;;;;;;11.68;5.97;;;614.90;1510.40;;;;;;5136937;27;20023;-75
2021/08/05 03:08:16;;;;;;;9.73;5.40;;;614.90;1510.40;;;;;;5136457;27;20027;-75
2021/08/05 03:10:42;;;;;;;9.82;5.75;;;614.90;1510.40;;;;;;5136753;27;20011;-75
2021/08/05 03:13:08;;;;;;;12.85;5.40;;;614.90;1510.40;;;;;;5136658;27;20106;-75
2021/08/05 03:15:34;;;;;;;11.15;5.05;;;614.80;1510.40;;;;;;5136683;27;20114;-75
2021/08/05 03:18:00;;;;;;;6.38;5.05;;;614.80;1510.40;;;;;;5137410;27;20037;-75
2021/08/05 03:20:26;;;;;;;9.68;4.75;;;614.80;1510.40;;;;;;5136559;27;20031;-75
2021/08/05 03:22:52;;;;;;;13.23;4.60;;;614.70;1510.40;;;;;;5136540;27;20019;-75
2021/08/05 03:25:18;;;;;;;9.07;4.78;;;614.80;1510.40;;;;;;5136283;27;20066;-76
2021/08/05 03:27:44;;;;;;;10.07;5.07;;;614.80;1510.40;;;;;;5136699;27;20083;-75
2021/08/05 03:30:10;;;;;;;10.60;5.20;;;614.70;1510.40;;;;;;5136693;27;20543;-76
2021/08/05 03:32:36;;;;;;;7.07;4.57;;;614.80;1510.40;;;;;;5117954;27;20505;-75
2021/08/05 03:35:02;;;;;;;13.85;5.78;;;614.70;1510.40;;;;;;5136277;27;20023;-76
2021/08/05 03:37:28;;;;;;;8.25;4.20;;;614.80;1484.80;;;;;;5136495;27;20038;-76
2021/08/05 03:39:54;;;;;;;9.25;4.60;;;614.70;1484.80;;;;;;5136112;27;20019;-76
2021/08/05 03:42:20;;;;;;;12.50;4.40;;;614.80;1484.80;;;;;;5136128;27;20015;-76
2021/08/05 03:44:46;;;;;;;8.80;5.25;;;614.80;1484.80;;;;;;5136027;27;20035;-77
2021/08/05 03:47:12;;;;;;;8.38;4.35;;;614.80;1484.80;;;;;;5135876;27;20060;-76
2021/08/05 03:49:38;;;;;;;13.02;5.13;;;614.70;1510.40;;;;;;5135895;27;20110;-75
2021/08/05 03:52:04;;;;;;;9.57;4.63;;;614.70;1484.80;;;;;;5135992;27;20417;-76
2021/08/05 03:54:30;;;;;;;6.50;4.20;;;614.70;1510.40;;;;;;5136516;27;20030;-76
2021/08/05 03:56:55;;;;;;;13.85;5.20;;;614.70;1484.80;;;;;;5135561;27;20039;-75
2021/08/05 03:59:21;;;;;;;11.25;4.60;;;614.70;1484.80;;;;;;5135911;27;20038;-76
2021/08/05 04:01:47;;;;;;;11.10;5.63;;;614.70;1510.40;;;;;;5135510;27;20031;-76
2021/08/05 04:04:13;;;;;;;8.73;4.70;;;614.60;1510.40;;;;;;5135769;27;20016;-76
2021/08/05 04:06:39;;;;;;;10.20;4.40;;;614.60;1510.40;;;;;;5135777;27;20023;-76
2021/08/05 04:09:05;;;;;;;11.48;5.18;;;614.70;1510.40;;;;;;5135772;27;20051;-76
2021/08/05 04:11:31;;;;;;;11.07;4.75;;;614.70;1510.40;;;;;;5135694;27;20467;-76
2021/08/05 04:13:57;;;;;;;9.65;4.80;;;614.70;1510.40;;;;;;5135631;27;20023;-76
2021/08/05 04:16:22;;;;;;;9.68;4.72;;;614.70;1510.40;;;;;;5135308;27;20027;-76
2021/08/05 04:18:48;;;;;;;13.50;5.03;;;614.60;1510.40;;;;;;5135447;27;20020;-76
2021/08/05 04:21:14;;;;;;;10.38;5.35;;;614.50;1510.40;;;;;;5135092;27;20032;-76
2021/08/05 04:23:40;;;;;;;12.00;5.28;;;614.50;1510.40;;;;;;5135657;27;20022;-75
2021/08/05 04:26:06;;;;;;;9.10;5.20;;;614.50;1510.40;;;;;;5135214;27;20518;-76
2021/08/05 04:28:32;;;;;;;7.80;5.05;;;614.50;1510.40;;;;;;5135278;27;20529;-76
2021/08/05 04:30:58;;;;;;;8.70;5.25;;;614.40;1536.00;;;;;;5135216;27;20098;-76
2021/08/05 04:33:24;;;;;;;17.98;5.65;;;614.50;1536.00;;;;;;5135034;27;20023;-75
2021/08/05 04:35:49;;;;;;;10.00;5.38;;;614.50;1536.00;;;;;;5116645;27;20027;-76
2021/08/05 04:38:15;;;;;;;11.38;5.25;;;614.40;1536.00;;;;;;5135161;27;20023;-76
2021/08/05 04:40:42;;;;;;;12.90;5.47;;;614.50;1536.00;;;;;;5135356;27;20023;-77
2021/08/05 04:43:08;;;;;;;11.35;5.50;;;614.60;1536.00;;;;;;5134953;27;20026;-76
2021/08/05 04:45:34;;;;;;;13.70;5.57;;;614.50;1536.00;;;;;;5134867;27;20023;-76
2021/08/05 04:48:03;;;;;;;12.80;5.57;;;614.50;1536.00;;;;;;5135077;27;20027;-76
2021/08/05 04:50:32;;;;;;;12.90;5.70;;;614.50;1536.00;;;;;;5135131;27;20011;-76
2021/08/05 04:53:01;;;;;;;8.88;5.13;;;614.50;1536.00;;;;;;5135039;27;20022;-76
2021/08/05 04:55:29;;;;;;;13.50;5.07;;;614.50;1536.00;;;;;;5134737;27;20114;-77
2021/08/05 04:57:55;;;;;;;10.25;5.15;;;614.50;1536.00;;;;;;5134799;27;20034;-76
2021/08/05 05:00:29;;;;;;;10.48;5.53;;;614.40;1561.60;;;;;;5135034;27;20458;-76
2021/08/05 05:02:56;;;;;;;14.40;5.97;;;614.50;1536.00;;;;;;5134779;27;20027;-76
2021/08/05 05:05:24;;;;;;;13.20;6.05;;;614.50;1561.60;;;;;;5134733;27;20031;-76
2021/08/05 05:07:50;;;;;;;11.43;5.63;;;614.50;1561.60;;;;;;5134673;27;20046;-75
2021/08/05 05:10:17;;;;;;;9.95;6.15;;;614.50;1561.60;;;;;;5134419;27;20031;-75
2021/08/05 05:12:43;;;;;;;12.57;5.60;;;614.60;1561.60;;;;;;5134370;27;20023;-74
2021/08/05 05:15:11;;;;;;;9.93;5.35;;;614.60;1561.60;;;;;;5134536;27;20115;-75
2021/08/05 05:17:39;;;;;;;11.70;5.72;;;614.60;1561.60;;;;;;5134444;27;20019;-75
2021/08/05 05:20:06;;;;;;;15.40;6.18;;;614.70;1561.60;;;;;;5134497;28;20030;-75
2021/08/05 05:22:32;;;;;;;15.77;6.28;;;614.60;1561.60;;;;;;5134628;28;20102;-75
2021/08/05 05:24:59;;;;;;;14.15;6.25;;;614.70;1561.60;;;;;;5134338;28;20098;-75
2021/08/05 05:27:25;;;;;;;13.85;5.82;;;614.70;1587.20;;;;;;5134957;28;20035;-75
2021/08/05 05:29:51;;;;;;;10.65;6.00;;;614.70;1587.20;;;;;;5134285;28;20379;-76
2021/08/05 05:32:17;;;;;;;13.15;5.95;;;614.70;1587.20;;;;;;5136298;27;20098;-76
2021/08/05 05:34:43;;;;;;;9.70;5.47;;;614.80;1587.20;;;;;;5138726;27;20023;-76
2021/08/05 05:37:09;;;;;;;10.15;5.60;;;614.80;1587.20;;;;;;5138703;27;20076;-75
2021/08/05 05:39:35;;;;;;;11.18;6.00;;;614.80;1587.20;;;;;;5138732;27;20095;-75
2021/08/05 05:42:01;;;;;;;15.55;5.68;;;614.80;1587.20;;;;;;5138306;27;20026;-75
2021/08/05 05:44:27;;;;;;;9.88;5.80;;;614.90;1587.20;;;;;;5138334;27;20023;-75
2021/08/05 05:46:53;;;;;;;14.95;5.82;;;614.90;1587.20;;;;;;5138308;27;20027;-75
2021/08/05 05:49:19;;;;;;;11.20;5.43;;;615.00;1587.20;;;;;;5138130;27;20061;-75
2021/08/05 05:51:45;;;;;;;14.63;5.28;;;615.10;1587.20;;;;;;5128883;27;20088;-76
2021/08/05 05:54:11;;;;;;;9.18;4.80;;;615.10;1587.20;;;;;;5115215;27;20023;-75
2021/08/05 05:56:37;;;;;;;10.05;5.47;;;615.10;1587.20;;;;;;5124658;27;20039;-76
2021/08/05 05:59:03;;;;;;;15.45;5.10;;;615.20;1587.20;;;;;;5125652;27;20045;-77
2021/08/05 06:01:29;;;;;;;11.57;5.15;;;615.20;1587.20;;;;;;5137786;27;20034;-75
2021/08/05 06:03:54;;;;;;;10.57;5.20;;;615.20;1612.80;;;;;;5138087;27;20019;-75
2021/08/05 06:06:20;;;;;;;11.73;4.93;;;615.20;1587.20;;;;;;5132880;27;20030;-78
2021/08/05 06:08:46;;;;;;;14.13;5.15;;;615.20;1587.20;;;;;;5138287;27;20527;-76
2021/08/05 06:11:12;;;;;;;13.30;5.97;;;615.20;1612.80;;;;;;5137841;27;20026;-75
2021/08/05 06:13:38;;;;;;;7.85;4.95;;;615.30;1612.80;;;;;;5137709;27;20027;-75
2021/08/05 06:16:04;;;;;;;17.77;6.00;;;640.00;1612.80;;;;;;5137607;27;20081;-76
2021/08/05 06:18:30;;;;;;;11.65;5.57;;;640.00;1612.80;;;;;;5137664;27;20015;-75
2021/08/05 06:20:56;;;;;;;12.95;5.63;;;640.20;1587.20;;;;;;5119146;27;20359;-76
2021/08/05 06:23:22;;;;;;;10.48;5.75;;;640.30;1612.80;;;;;;5137579;27;20023;-76
2021/08/05 06:25:47;;;;;;;12.90;5.63;;;640.50;1612.80;;;;;;5137250;27;20126;-77
2021/08/05 06:28:13;;;;;;;10.80;5.07;;;640.60;1612.80;;;;;;5137362;27;20022;-76
2021/08/05 06:30:39;;;;;;;12.15;5.78;;;640.60;1587.20;;;;;;5137369;27;20015;-76
2021/08/05 06:33:05;;;;;;;14.77;5.88;;;640.60;1612.80;;;;;;5118948;27;20072;-75
2021/08/05 06:35:31;;;;;;;10.90;5.68;;;640.50;1612.80;;;;;;5137239;27;20035;-75
2021/08/05 06:37:57;;;;;;;16.80;5.85;;;640.60;1612.80;;;;;;5137239;27;20099;-75
2021/08/05 06:40:23;;;;;;;17.50;5.78;;;640.60;1612.80;;;;;;5137399;27;20106;-75
2021/08/05 06:42:49;;;;;;;19.75;5.75;;;640.70;1612.80;;;;;;5137038;27;20027;-76
2021/08/05 06:45:15;;;;;;;13.82;5.55;;;640.80;1587.20;;;;;;5137073;27;20064;-79
2021/08/05 06:47:45;;;;;;;21.98;5.00;;;640.80;1587.20;;;;;;5137143;27;20728;-75
2021/08/05 06:50:11;;;;;;;12.00;5.88;;;640.80;1612.80;;;;;;5137073;27;20106;-74
2021/08/05 06:52:37;;;;;;;15.30;5.80;;;640.80;1612.80;;;;;;5137043;27;20030;-73
2021/08/05 06:55:04;;;;;;;14.15;5.47;;;640.90;1587.20;;;;;;5136966;27;20023;-73
2021/08/05 06:57:31;;;;;;;14.00;6.28;;;640.90;1587.20;;;;;;5137259;27;20045;-77
2021/08/05 06:59:58;;;;;;;17.77;5.53;;;665.60;1664.00;;;;;;5118473;27;20474;-75
2021/08/05 07:02:24;;;;;;;13.63;4.97;;;665.70;1612.80;;;;;;5136984;27;20157;-75
2021/08/05 07:04:49;;;;;;;20.00;6.32;;;665.80;1612.80;;;;;;5136723;27;20530;-76
2021/08/05 07:07:15;;;;;;;14.25;6.07;;;665.80;1612.80;;;;;;5118295;27;20027;-76
2021/08/05 07:09:41;;;;;;;16.88;5.43;;;665.90;1612.80;;;;;;5137066;27;20383;-74
2021/08/05 07:12:07;;;;;;;23.73;6.70;;;665.90;1612.80;;;;;;5136865;27;20461;-77
2021/08/05 07:14:33;;;;;;;19.17;5.75;;;665.90;1612.80;;;;;;5136735;27;20019;-75
2021/08/05 07:16:59;;;;;;;12.85;5.57;;;665.90;1587.20;;;;;;5136279;27;20442;-75
2021/08/05 07:19:25;;;;;;;18.52;5.90;;;665.90;1612.80;;;;;;5136255;27;20056;-75
2021/08/05 07:21:52;;;;;;;184.45;14.82;;;665.80;1612.80;;;;;;5136206;27;20399;-78
2021/08/05 07:24:18;;;;;;;305.73;28.20;;;665.70;1612.80;;;;;;5136248;27;20026;-77
2021/08/05 07:26:44;;;;;;;113.53;17.50;;;640.70;1612.80;;;;;;5136297;27;20119;-78
2021/08/05 07:29:10;;;;;;;127.20;16.05;;;640.50;1715.20;;;;;;5117865;27;20057;-77
2021/08/05 07:31:36;;;;;;;33.03;5.97;;;615.20;1792.00;;;;;;5136131;27;20027;-78
2021/08/05 07:34:03;;;;;;;27.10;6.30;;;614.80;1868.80;;;;;;5131676;27;20030;-77
2021/08/05 07:36:29;;;;;;;29.92;7.55;;;614.70;1894.40;;;;;;5125399;27;20055;-77
2021/08/05 07:38:54;;;;;;;20.30;6.85;;;614.40;1945.60;;;;;;5125258;27;20054;-77
2021/08/05 07:41:21;;;;;;;20.48;6.65;;;589.50;1945.60;;;;;;5128521;27;20023;-77
2021/08/05 07:43:46;;;;;;;26.15;8.00;;;589.50;1971.20;;;;;;5135697;27;20019;-77
2021/08/05 07:46:12;;;;;;;18.55;7.07;;;589.40;1971.20;;;;;;5131854;27;20032;-77
2021/08/05 07:48:38;;;;;;;21.20;7.25;;;589.20;1996.80;;;;;;5131820;27;20031;-77
2021/08/05 07:51:04;;;;;;;25.35;7.18;;;589.10;1996.80;;;;;;5135365;27;20100;-79
2021/08/05 07:53:30;;;;;;;16.05;6.35;;;589.20;1996.80;;;;;;5135754;27;20016;-77
2021/08/05 07:55:56;;;;;;;18.40;7.63;;;589.10;1996.80;;;;;;5115946;27;20083;-76
2021/08/05 07:58:22;;;;;;;16.90;7.13;;;589.00;2022.40;;;;;;5135607;27;20102;-77
2021/08/05 08:00:48;;;;;;;13.70;6.53;;;589.00;1996.80;;;;;;5135454;27;20019;-74
2021/08/05 08:03:15;;;;;;;19.48;6.72;;;589.00;2022.40;;;;;;5124234;27;20032;-76
2021/08/05 08:05:42;;;;;;;11.73;6.63;;;589.00;2048.00;;;;;;5114120;27;20036;-77
2021/08/05 08:08:09;;;;;;;14.93;6.75;;;589.00;2048.00;;;;;;5113445;28;20015;-76
2021/08/05 08:10:36;;;;;;;12.43;6.50;;;589.00;2073.60;;;;;;5096044;28;20038;-75
2021/08/05 08:13:02;;;;;;;24.88;6.57;;;589.00;2073.60;;;;;;5095664;28;20054;-74
2021/08/05 08:15:29;;;;;;;18.58;7.15;;;589.00;2073.60;;;;;;5108268;28;20031;-76
2021/08/05 08:17:55;;;;;;;21.30;6.60;;;589.10;2048.00;;;;;;5110660;28;20027;-76
2021/08/05 08:20:21;;;;;;;16.38;5.85;;;589.20;2022.40;;;;;;5094290;28;20437;-77
2021/08/05 08:22:48;;;;;;;26.92;6.60;;;589.30;1996.80;;;;;;5109857;28;20094;-77
2021/08/05 08:25:14;;;;;;;15.43;5.93;;;589.70;1971.20;;;;;;5112854;28;20022;-77
2021/08/05 08:27:41;;;;;;;13.43;5.75;;;589.40;1996.80;;;;;;5112991;28;20037;-75
2021/08/05 08:30:09;;;;;;;16.60;5.22;;;589.50;1945.60;;;;;;5110179;28;20011;-76
2021/08/05 08:32:36;;;;;;;16.83;6.72;;;589.60;1971.20;;;;;;5112757;28;20102;-76
2021/08/05 08:35:03;;;;;;;11.77;5.68;;;589.40;1971.20;;;;;;5094439;28;20019;-77
2021/08/05 08:37:29;;;;;;;16.95;7.95;;;589.30;1996.80;;;;;;5091927;28;20062;-76
2021/08/05 08:39:55;;;;;;;16.35;5.75;;;589.30;1996.80;;;;;;5112480;28;20054;-77
2021/08/05 08:42:21;;;;;;;13.80;5.35;;;589.30;1996.80;;;;;;5094520;28;20546;-75
2021/08/05 08:44:46;;;;;;;14.40;5.80;;;589.30;1996.80;;;;;;5112111;28;20020;-73
2021/08/05 08:47:13;;;;;;;18.58;5.65;;;589.50;1971.20;;;;;;5094939;28;20019;-77
2021/08/05 08:49:43;;;;;;;15.13;6.15;;;589.60;1971.20;;;;;;5112264;28;20110;-75
2021/08/05 08:52:11;;;;;;;13.02;6.30;;;589.50;1996.80;;;;;;5091684;28;20012;-77
2021/08/05 08:54:43;;;;;;;12.80;5.47;;;589.40;2022.40;;;;;;5112605;28;20068;-76
2021/08/05 08:57:13;;;;;;;12.45;6.15;;;589.30;1996.80;;;;;;5110106;28;20023;-77
2021/08/05 08:59:40;;;;;;;13.57;6.38;;;589.20;2022.40;;;;;;5112416;28;20024;-77
2021/08/05 09:02:06;;;;;;;16.58;6.43;;;589.30;2022.40;;;;;;5112158;28;20031;-77
2021/08/05 09:04:34;;;;;;;11.88;5.47;;;589.30;2022.40;;;;;;5112303;28;20019;-77
2021/08/05 09:07:00;;;;;;;13.63;6.53;;;589.20;2022.40;;;;;;5111689;28;20016;-78
2021/08/05 09:09:26;;;;;;;19.13;7.20;;;589.20;2048.00;;;;;;5112239;28;20023;-76
2021/08/05 09:11:52;;;;;;;12.23;6.07;;;589.10;2073.60;;;;;;5112066;28;20502;-77
2021/08/05 09:14:45;;;;;;;13.90;6.05;;;589.20;2048.00;;;;;;5112787;28;20023;-77
2021/08/05 09:17:19;;;;;;;13.02;5.95;;;589.20;2048.00;;;;;;5088916;28;20042;-76
2021/08/05 09:19:45;;;;;;;13.07;6.20;;;589.20;2048.00;;;;;;5093998;28;20412;-77
2021/08/05 09:22:12;;;;;;;10.70;6.05;;;589.10;2099.20;;;;;;5093715;28;20093;-76
2021/08/05 09:24:38;;;;;;;17.48;6.38;;;589.00;2099.20;;;;;;5112002;28;20028;-76
2021/08/05 09:27:04;;;;;;;15.40;6.07;;;589.00;2099.20;;;;;;5112031;28;20052;-76
2021/08/05 09:29:43;;;;;;;16.30;6.65;;;589.00;2099.20;;;;;;5111717;28;20051;-78
2021/08/05 09:32:09;;;;;;;16.13;6.68;;;588.90;2124.80;;;;;;5091563;28;20110;-77
2021/08/05 09:34:40;;;;;;;18.17;7.30;;;588.80;2150.40;;;;;;5093346;28;20459;-76
2021/08/05 09:37:09;;;;;;;16.98;6.85;;;588.80;2099.20;;;;;;5112244;28;20103;-76
2021/08/05 09:39:38;;;;;;;19.85;9.48;;;589.00;2073.60;;;;;;5111694;28;20024;-77
2021/08/05 09:42:11;;;;;;;21.42;12.23;;;589.00;2099.20;;;;;;5094650;28;20027;-77
2021/08/05 09:44:37;;;;;;;34.08;16.63;;;589.00;2073.60;;;;;;5112881;28;20051;-76
2021/08/05 09:47:16;;;;;;;42.30;15.13;;;588.90;2099.20;;;;;;5112975;28;20058;-77
2021/08/05 09:49:51;;;;;;;34.10;10.38;;;589.00;2099.20;;;;;;5112914;28;20023;-76
2021/08/05 09:52:27;;;;;;;17.63;7.78;;;589.00;2099.20;;;;;;5112913;28;20107;-76
2021/08/05 09:54:53;;;;;;;24.55;9.40;;;589.00;2073.60;;;;;;5112535;28;20080;-77
2021/08/05 09:57:24;;;;;;;13.32;7.05;;;589.10;2099.20;;;;;;5113053;28;20032;-77
2021/08/05 09:59:58;;;;;;;17.67;7.22;;;589.00;2099.20;;;;;;5095095;28;20016;-76
2021/08/05 10:02:26;;;;;;;12.65;7.70;;;588.90;2124.80;;;;;;5112609;28;20023;-74
2021/08/05 10:05:08;;;;;;;16.83;8.00;;;588.90;2124.80;;;;;;5112813;28;20486;-78
2021/08/05 10:07:49;;;;;;;13.10;7.22;;;588.90;2124.80;;;;;;5099162;28;20027;-77
2021/08/05 10:10:17;;;;;;;14.88;6.80;;;588.90;2124.80;;;;;;5107309;28;20051;-77
2021/08/05 10:12:52;;;;;;;15.20;7.30;;;589.00;2124.80;;;;;;5133521;28;20023;-78
2021/08/05 10:15:19;;;;;;;14.23;8.18;;;588.90;2124.80;;;;;;5114873;28;20027;-78
2021/08/05 10:17:49;;;;;;;17.08;8.18;;;564.10;2201.60;;;;;;5111883;27;20076;-78
2021/08/05 10:20:14;;;;;;;13.85;7.70;;;588.80;2176.00;;;;;;5131067;27;20439;-77
2021/08/05 10:22:41;;;;;;;14.07;8.38;;;588.80;2150.40;;;;;;5137465;27;20471;-78
2021/08/05 10:25:11;;;;;;;13.73;7.75;;;588.80;2176.00;;;;;;5118979;27;20053;-80
2021/08/05 10:27:37;;;;;;;12.90;7.82;;;588.80;2176.00;;;;;;5137480;27;20390;-79
2021/08/05 10:30:09;;;;;;;13.45;8.25;;;588.80;2176.00;;;;;;5137045;27;20486;-78
2021/08/05 10:32:35;;;;;;;12.20;8.10;;;588.90;2176.00;;;;;;5119107;27;20386;-77
2021/08/05 10:35:01;;;;;;;12.98;7.00;;;588.90;2176.00;;;;;;5118596;27;20106;-77
2021/08/05 10:37:28;;;;;;;14.77;8.30;;;589.00;2150.40;;;;;;5137052;27;20039;-75
2021/08/05 10:39:56;;;;;;;12.35;9.15;;;589.10;2201.60;;;;;;5132800;27;20016;-77
2021/08/05 10:42:21;;;;;;;13.63;9.02;;;589.30;2201.60;;;;;;5126890;27;20023;-77
2021/08/05 10:44:50;;;;;;;13.10;8.18;;;589.30;2201.60;;;;;;5122867;27;20099;-75
2021/08/05 10:47:21;;;;;;;29.55;8.07;;;589.50;2176.00;;;;;;5115649;28;20019;-74
2021/08/05 10:49:50;;;;;;;19.17;7.50;;;589.70;2201.60;;;;;;5115917;28;20023;-75
2021/08/05 10:52:34;;;;;;;24.58;6.72;;;589.70;2176.00;;;;;;5105389;27;20471;-76
2021/08/05 10:55:03;;;;;;;16.95;6.47;;;614.40;2150.40;;;;;;5104227;27;20031;-77
2021/08/05 10:57:28;;;;;;;14.68;7.35;;;614.60;2048.00;;;;;;5123590;27;20456;-77
2021/08/05 11:00:00;;;;;;;9.32;6.60;;;614.70;2124.80;;;;;;5127906;27;20055;-76
2021/08/05 11:02:52;;;;;;;14.88;5.60;;;614.80;2073.60;;;;;;5103441;27;20019;-77
2021/08/05 11:05:24;;;;;;;11.15;6.93;;;614.80;2048.00;;;;;;5105090;27;20390;-75
2021/08/05 11:08:14;;;;;;;14.10;6.82;;;614.70;2073.60;;;;;;5128170;27;20031;-77
2021/08/05 11:10:40;;;;;;;16.85;6.70;;;614.80;2073.60;;;;;;5135446;27;20042;-77
2021/08/05 11:13:09;;;;;;;12.05;6.32;;;614.90;2073.60;;;;;;5135875;27;20023;-77
2021/08/05 11:15:35;;;;;;;17.38;6.28;;;615.00;2022.40;;;;;;5133036;27;20475;-73
2021/08/05 11:18:07;;;;;;;18.58;6.55;;;615.00;2022.40;;;;;;5135802;27;20052;-76
2021/08/05 11:20:34;;;;;;;14.03;6.40;;;615.10;2048.00;;;;;;5136369;27;20023;-76
2021/08/05 11:23:00;;;;;;;16.42;6.78;;;615.00;2073.60;;;;;;5111146;27;20015;-75
2021/08/05 11:25:46;;;;;;;17.25;7.18;;;615.00;2073.60;;;;;;5129302;27;20391;-76
2021/08/05 11:28:43;;;;;;;19.02;6.53;;;615.00;2048.00;;;;;;5108899;27;20015;-78
2021/08/05 11:31:31;;;;;;;8.57;5.85;;;615.00;2048.00;;;;;;5115581;27;20032;-75
2021/08/05 11:34:04;;;;;;;10.65;6.85;;;614.90;2073.60;;;;;;5115479;28;20168;-76
2021/08/05 11:36:42;;;;;;;15.68;6.60;;;614.80;2073.60;;;;;;5114900;28;20360;-77
2021/08/05 11:39:25;;;;;;;12.38;5.72;;;614.80;2099.20;;;;;;5115418;28;20024;-76
2021/08/05 11:42:02;;;;;;;14.55;5.15;;;614.80;2048.00;;;;;;5096557;28;20023;-77
2021/08/05 11:44:38;;;;;;;11.82;5.25;;;614.90;2048.00;;;;;;5122063;27;20103;-77
2021/08/05 11:47:19;;;;;;;16.60;4.90;;;614.90;2048.00;;;;;;5123094;27;20076;-79
2021/08/05 11:50:07;;;;;;;9.15;4.70;;;615.00;2022.40;;;;;;5120659;27;20020;-77
2021/08/05 11:52:45;;;;;;;11.63;4.80;;;615.00;2022.40;;;;;;5121407;27;20022;-74
2021/08/05 11:55:23;;;;;;;9.57;4.70;;;615.10;2073.60;;;;;;5121356;27;20111;-76
2021/08/05 11:57:50;;;;;;;13.75;5.00;;;615.20;2022.40;;;;;;5094125;28;20028;-78
2021/08/05 12:00:40;;;;;;;16.77;4.70;;;615.20;2022.40;;;;;;5076169;28;20470;-74
2021/08/05 12:03:11;;;;;;;21.27;4.50;;;640.00;1996.80;;;;;;5093968;28;20031;-77
2021/08/05 12:05:48;;;;;;;22.98;4.65;;;640.10;1945.60;;;;;;5094306;28;20077;-75
2021/08/05 12:08:20;;;;;;;12.40;4.50;;;640.20;1945.60;;;;;;5093650;28;20086;-75
2021/08/05 12:10:46;;;;;;;29.70;4.40;;;640.30;1996.80;;;;;;5101416;27;20160;-75
2021/08/05 12:13:17;;;;;;;13.82;4.63;;;640.40;1945.60;;;;;;5106283;27;20106;-75
2021/08/05 12:15:46;;;;;;;11.43;4.30;;;640.50;1920.00;;;;;;5105870;28;20027;-77
2021/08/05 12:18:20;;;;;;;8.30;3.53;;;640.50;1945.60;;;;;;5120698;27;20032;-76